createdAt,value
2022-11-20T00:01:23.132Z,76.16
2022-11-20T00:03:52.651Z,76.34
2022-11-20T00:06:24.068Z,76.44
2022-11-20T00:08:52.127Z,76.62
2022-11-20T00:11:22.042Z,76.61
2022-11-20T00:13:51.683Z,76.60
2022-11-20T00:16:21.510Z,76.78
2022-11-20T00:18:49.117Z,76.97
2022-11-20T00:21:24.019Z,76.90
2022-11-20T00:23:55.153Z,77.63
2022-11-20T00:26:24.410Z,77.26
2022-11-20T00:28:56.662Z,77.69
2022-11-20T00:31:24.417Z,77.68
2022-11-20T00:33:52.145Z,77.51
2022-11-20T00:36:22.248Z,77.30
2022-11-20T00:38:53.681Z,76.88
2022-11-20T00:41:20.809Z,76.67
2022-11-20T00:43:47.831Z,76.94
2022-11-20T00:46:20.330Z,76.76
2022-11-20T00:48:47.856Z,76.53
2022-11-20T00:51:17.695Z,76.80
2022-11-20T00:53:45.186Z,76.82
2022-11-20T00:56:14.169Z,76.77
2022-11-20T00:58:43.209Z,77.18
2022-11-20T01:01:12.861Z,77.23
2022-11-20T01:03:42.340Z,76.77
2022-11-20T01:06:13.725Z,76.59
2022-11-20T01:08:41.099Z,76.97
2022-11-20T01:11:11.633Z,76.59
2022-11-20T01:13:40.219Z,76.92
2022-11-20T01:16:28.689Z,76.86
2022-11-20T01:18:58.135Z,76.39
2022-11-20T01:21:27.864Z,76.38
2022-11-20T01:23:55.090Z,76.30
2022-11-20T01:26:26.904Z,76.36
2022-11-20T01:28:54.879Z,75.76
2022-11-20T01:31:24.427Z,76.01
2022-11-20T01:33:53.138Z,75.91
2022-11-20T01:36:22.415Z,76.13
2022-11-20T01:38:53.009Z,76.18
2022-11-20T01:41:39.244Z,75.91
2022-11-20T01:44:06.951Z,76.11
2022-11-20T01:46:36.994Z,75.61
2022-11-20T01:49:05.471Z,76.00
2022-11-20T01:51:45.382Z,76.53
2022-11-20T01:54:22.762Z,76.27
2022-11-20T01:56:51.879Z,75.87
2022-11-20T01:59:19.863Z,75.95
2022-11-20T02:01:47.346Z,75.74
2022-11-20T02:04:14.792Z,76.10
2022-11-20T02:06:48.443Z,76.01
2022-11-20T02:09:16.487Z,75.99
2022-11-20T02:11:43.888Z,75.92
2022-11-20T02:14:11.220Z,75.99
2022-11-20T02:16:41.350Z,76.26
2022-11-20T02:19:12.808Z,75.99
2022-11-20T02:22:05.161Z,75.70
2022-11-20T02:24:32.424Z,76.70
2022-11-20T02:27:03.470Z,76.54
2022-11-20T02:29:37.613Z,76.60
2022-11-20T02:32:04.940Z,76.13
2022-11-20T02:34:32.444Z,76.13
2022-11-20T02:37:00.216Z,76.30
2022-11-20T02:39:28.737Z,76.18
2022-11-20T02:41:56.890Z,76.11
2022-11-20T02:44:24.007Z,75.94
2022-11-20T02:46:51.122Z,76.04
2022-11-20T02:49:18.231Z,76.23
2022-11-20T02:51:45.531Z,76.00
2022-11-20T02:54:12.618Z,76.11
2022-11-20T02:56:40.613Z,76.01
2022-11-20T02:59:08.379Z,75.84
2022-11-20T03:01:35.507Z,75.86
2022-11-20T03:04:03.458Z,75.39
2022-11-20T03:06:30.677Z,75.38
2022-11-20T03:08:57.916Z,75.41
2022-11-20T03:11:25.334Z,75.55
2022-11-20T03:13:52.616Z,75.06
2022-11-20T03:16:21.856Z,75.35
2022-11-20T03:18:49.828Z,75.27
2022-11-20T03:21:17.530Z,75.42
2022-11-20T03:23:44.711Z,74.76
2022-11-20T03:26:11.680Z,75.16
2022-11-20T03:28:39.209Z,75.20
2022-11-20T03:31:08.087Z,75.46
2022-11-20T03:33:35.366Z,75.26
2022-11-20T03:36:06.483Z,75.20
2022-11-20T03:38:34.039Z,75.01
2022-11-20T03:41:06.704Z,75.26
2022-11-20T03:43:34.115Z,75.41
2022-11-20T03:46:01.653Z,75.40
2022-11-20T03:48:28.806Z,75.53
2022-11-20T03:51:09.934Z,75.54
2022-11-20T03:53:37.056Z,75.68
2022-11-20T03:56:04.594Z,75.33
2022-11-20T03:58:32.152Z,75.35
2022-11-20T04:00:59.240Z,75.36
2022-11-20T04:03:26.485Z,75.44
2022-11-20T04:05:53.529Z,75.46
2022-11-20T04:08:20.566Z,75.11
2022-11-20T04:10:47.891Z,75.25
2022-11-20T04:13:14.938Z,75.10
2022-11-20T04:15:42.054Z,75.00
2022-11-20T04:18:09.115Z,75.12
2022-11-20T04:20:36.211Z,75.75
2022-11-20T04:23:03.278Z,75.56
2022-11-20T04:25:30.387Z,75.38
2022-11-20T04:27:57.430Z,74.90
2022-11-20T04:30:24.500Z,75.02
2022-11-20T04:32:51.672Z,75.27
2022-11-20T04:35:18.709Z,75.44
2022-11-20T04:37:45.737Z,75.46
2022-11-20T04:40:13.076Z,75.29
2022-11-20T04:42:40.181Z,75.20
2022-11-20T04:45:07.516Z,75.43
2022-11-20T04:47:34.591Z,75.20
2022-11-20T04:50:01.709Z,75.16
2022-11-20T04:52:28.828Z,75.14
2022-11-20T04:54:56.125Z,74.88
2022-11-20T04:57:23.216Z,75.25
2022-11-20T04:59:50.271Z,75.31
2022-11-20T05:02:17.558Z,75.27
2022-11-20T05:04:44.672Z,75.44
2022-11-20T05:07:11.776Z,75.49
2022-11-20T05:09:39.013Z,75.16
2022-11-20T05:12:08.545Z,75.09
2022-11-20T05:14:35.743Z,75.64
2022-11-20T05:17:02.956Z,75.68
2022-11-20T05:19:30.012Z,75.27
2022-11-20T05:21:57.386Z,75.57
2022-11-20T05:24:24.568Z,75.15
2022-11-20T05:26:51.645Z,75.62
2022-11-20T05:29:18.962Z,75.44
2022-11-20T05:31:46.220Z,75.12
2022-11-20T05:34:13.283Z,75.49
2022-11-20T05:36:40.356Z,75.55
2022-11-20T05:39:07.443Z,75.37
2022-11-20T05:41:34.525Z,75.26
2022-11-20T05:44:01.830Z,75.21
2022-11-20T05:46:29.581Z,74.87
2022-11-20T05:48:58.149Z,75.04
2022-11-20T05:51:26.088Z,75.17
2022-11-20T05:53:55.320Z,75.09
2022-11-20T05:56:23.184Z,75.18
2022-11-20T05:58:50.488Z,75.00
2022-11-20T06:01:22.798Z,74.56
2022-11-20T06:03:51.523Z,74.77
2022-11-20T06:06:19.900Z,74.77
2022-11-20T06:08:47.531Z,74.52
2022-11-20T06:11:15.901Z,74.67
2022-11-20T06:13:43.589Z,74.80
2022-11-20T06:16:11.903Z,74.86
2022-11-20T06:18:39.805Z,74.23
2022-11-20T06:21:15.665Z,74.48
2022-11-20T06:23:43.534Z,74.32
2022-11-20T06:26:19.581Z,73.84
2022-11-20T06:28:47.059Z,74.25
2022-11-20T06:31:16.651Z,74.95
2022-11-20T06:33:44.298Z,75.07
2022-11-20T06:36:13.349Z,75.24
2022-11-20T06:38:40.980Z,75.45
2022-11-20T06:41:12.056Z,75.22
2022-11-20T06:43:39.224Z,75.07
2022-11-20T06:46:06.583Z,74.90
2022-11-20T06:48:33.786Z,75.47
2022-11-20T06:51:01.062Z,75.21
2022-11-20T06:53:28.102Z,75.34
2022-11-20T06:55:57.192Z,74.96
2022-11-20T06:58:24.698Z,75.30
2022-11-20T07:00:51.862Z,75.17
2022-11-20T07:03:19.011Z,75.04
2022-11-20T07:05:46.987Z,75.10
2022-11-20T07:08:14.078Z,75.05
2022-11-20T07:10:41.174Z,75.03
2022-11-20T07:13:08.218Z,74.88
2022-11-20T07:15:35.333Z,74.90
2022-11-20T07:18:02.890Z,74.95
2022-11-20T07:20:30.173Z,74.96
2022-11-20T07:22:57.882Z,75.19
2022-11-20T07:25:26.202Z,75.04
2022-11-20T07:27:53.270Z,75.25
2022-11-20T07:30:20.365Z,75.50
2022-11-20T07:32:49.167Z,75.77
2022-11-20T07:35:16.246Z,75.74
2022-11-20T07:37:43.395Z,75.48
2022-11-20T07:40:11.200Z,75.79
2022-11-20T07:42:38.314Z,76.05
2022-11-20T07:45:06.002Z,76.06
2022-11-20T07:47:37.321Z,76.43
2022-11-20T07:50:04.979Z,76.85
2022-11-20T07:52:32.105Z,76.94
2022-11-20T07:54:59.211Z,77.04
2022-11-20T07:57:28.471Z,76.80
2022-11-20T07:59:55.722Z,76.88
2022-11-20T08:02:22.821Z,76.93
2022-11-20T08:04:50.090Z,76.76
2022-11-20T08:07:17.450Z,76.39
2022-11-20T08:09:44.622Z,76.64
2022-11-20T08:12:38.518Z,76.37
2022-11-20T08:15:12.551Z,76.78
2022-11-20T08:17:40.296Z,76.71
2022-11-20T08:20:07.820Z,76.46
2022-11-20T08:22:34.950Z,75.80
2022-11-20T08:25:02.756Z,76.28
2022-11-20T08:27:30.094Z,76.66
2022-11-20T08:29:57.207Z,75.91
2022-11-20T08:32:24.957Z,75.91
2022-11-20T08:34:52.028Z,75.99
2022-11-20T08:37:19.178Z,75.94
2022-11-20T08:39:46.249Z,75.82
2022-11-20T08:42:13.312Z,75.58
2022-11-20T08:44:40.389Z,75.38
2022-11-20T08:47:07.473Z,75.42
2022-11-20T08:49:35.044Z,75.35
2022-11-20T08:52:02.108Z,75.76
2022-11-20T08:54:29.148Z,75.42
2022-11-20T08:56:56.235Z,75.50
2022-11-20T08:59:43.954Z,75.50
2022-11-20T09:02:10.393Z,75.80
2022-11-20T09:04:37.534Z,75.61
2022-11-20T09:07:04.705Z,75.79
2022-11-20T09:09:31.875Z,75.41
2022-11-20T09:11:58.967Z,75.31
2022-11-20T09:14:30.014Z,75.56
2022-11-20T09:16:57.594Z,76.00
2022-11-20T09:19:41.076Z,75.78
2022-11-20T09:22:08.322Z,75.54
2022-11-20T09:24:35.552Z,75.36
2022-11-20T09:27:04.279Z,75.82
2022-11-20T09:29:31.518Z,76.06
2022-11-20T09:31:58.595Z,76.38
2022-11-20T09:34:25.706Z,76.43
2022-11-20T09:36:53.150Z,76.40
2022-11-20T09:39:20.411Z,76.20
2022-11-20T09:42:16.841Z,76.41
2022-11-20T09:44:47.278Z,75.86
2022-11-20T09:47:51.636Z,75.92
2022-11-20T09:50:25.227Z,75.95
2022-11-20T09:53:01.671Z,76.31
2022-11-20T09:55:30.270Z,75.88
2022-11-20T09:57:58.955Z,75.66
2022-11-20T10:00:27.290Z,75.94
2022-11-20T10:02:58.287Z,75.75
2022-11-20T10:05:32.617Z,76.86
2022-11-20T10:08:22.921Z,76.63
2022-11-20T10:11:02.111Z,77.53
2022-11-20T10:13:35.836Z,77.78
2022-11-20T10:16:18.186Z,77.92
2022-11-20T10:19:11.293Z,78.74
2022-11-20T10:21:56.918Z,78.99
2022-11-20T10:24:35.935Z,79.43
2022-11-20T10:27:29.061Z,79.50
2022-11-20T10:30:14.038Z,79.66
2022-11-20T10:32:44.170Z,79.60
2022-11-20T10:35:25.106Z,79.55
2022-11-20T10:38:06.825Z,79.97
2022-11-20T10:40:42.677Z,80.60
2022-11-20T10:43:22.530Z,80.76
2022-11-20T10:45:58.985Z,80.40
2022-11-20T10:48:28.041Z,80.86
2022-11-20T10:51:13.288Z,80.13
2022-11-20T10:53:49.504Z,80.65
2022-11-20T10:56:26.817Z,80.57
2022-11-20T10:59:04.319Z,80.47
2022-11-20T11:01:31.547Z,80.39
2022-11-20T11:03:59.633Z,80.14
2022-11-20T11:06:35.447Z,79.87
2022-11-20T11:09:12.287Z,79.84
2022-11-20T11:11:39.696Z,80.13
2022-11-20T11:14:12.361Z,79.56
2022-11-20T11:16:53.999Z,79.79
2022-11-20T11:19:21.955Z,79.64
2022-11-20T11:21:57.866Z,79.68
2022-11-20T11:24:41.635Z,79.29
2022-11-20T11:27:17.132Z,79.28
2022-11-20T11:29:45.923Z,79.66
2022-11-20T11:32:23.911Z,79.80
2022-11-20T11:35:08.035Z,79.60
2022-11-20T11:37:37.140Z,79.94
2022-11-20T11:43:05.781Z,79.18
2022-11-20T11:45:32.894Z,79.68
2022-11-20T11:48:02.633Z,79.58
2022-11-20T11:50:32.027Z,78.96
2022-11-20T11:53:16.206Z,79.57
2022-11-20T11:56:01.162Z,79.47
2022-11-20T11:58:50.641Z,79.63
2022-11-20T12:01:26.974Z,79.31
2022-11-20T12:04:10.520Z,79.40
2022-11-20T12:06:38.895Z,79.55
2022-11-20T12:09:10.170Z,79.04
2022-11-20T12:11:56.097Z,79.53
2022-11-20T12:14:34.742Z,79.35
2022-11-20T12:17:03.131Z,79.76
2022-11-20T12:19:35.818Z,79.81
2022-11-20T12:22:24.863Z,80.11
2022-11-20T12:25:13.672Z,80.06
2022-11-20T12:27:49.807Z,80.51
2022-11-20T12:30:19.029Z,80.63
2022-11-20T12:33:07.456Z,80.37
2022-11-20T12:35:46.796Z,80.09
2022-11-20T12:38:35.061Z,80.38
2022-11-20T12:41:08.143Z,80.58
2022-11-20T12:44:29.479Z,80.60
2022-11-20T12:47:07.197Z,80.83
2022-11-20T12:50:00.379Z,80.63
2022-11-20T12:52:33.271Z,80.63
2022-11-20T12:55:32.689Z,80.47
2022-11-20T12:58:11.552Z,81.22
2022-11-20T13:00:43.796Z,80.61
2022-11-20T13:03:17.721Z,81.04
2022-11-20T13:05:57.839Z,81.27
2022-11-20T13:08:35.269Z,80.84
2022-11-20T13:11:11.532Z,80.71
2022-11-20T13:14:03.270Z,80.94
2022-11-20T13:16:50.421Z,80.80
2022-11-20T13:19:18.982Z,81.04
2022-11-20T13:21:50.483Z,81.27
2022-11-20T13:24:21.269Z,80.88
2022-11-20T13:26:48.942Z,80.94
2022-11-20T13:29:20.387Z,80.91
2022-11-20T13:31:49.743Z,80.21
2022-11-20T13:34:28.516Z,80.33
2022-11-20T13:36:58.211Z,80.99
2022-11-20T13:39:28.894Z,80.47
2022-11-20T13:41:58.884Z,80.27
2022-11-20T13:44:51.318Z,79.86
2022-11-20T13:47:37.294Z,80.34
2022-11-20T13:50:10.425Z,79.97
2022-11-20T13:52:54.216Z,80.59
2022-11-20T13:55:24.759Z,80.44
2022-11-20T13:58:26.089Z,80.92
2022-11-20T14:01:01.743Z,80.32
2022-11-20T14:04:04.669Z,80.82
2022-11-20T14:06:32.602Z,80.64
2022-11-20T14:09:00.672Z,80.72
2022-11-20T14:11:32.440Z,80.68
2022-11-20T14:14:18.584Z,80.69
2022-11-20T14:16:46.798Z,80.05
2022-11-20T14:19:31.810Z,80.52
2022-11-20T14:22:12.273Z,80.38
2022-11-20T14:24:39.824Z,80.31
2022-11-20T14:27:13.795Z,80.23
2022-11-20T14:29:42.635Z,80.37
2022-11-20T14:32:10.544Z,79.95
2022-11-20T14:34:41.627Z,80.08
2022-11-20T14:37:16.804Z,79.88
2022-11-20T14:39:53.639Z,79.98
2022-11-20T14:42:23.775Z,80.15
2022-11-20T14:44:52.663Z,80.66
2022-11-20T14:47:22.738Z,80.48
2022-11-20T14:49:51.913Z,80.07
2022-11-20T14:52:24.861Z,79.89
2022-11-20T14:54:54.342Z,79.96
2022-11-20T14:57:21.666Z,80.01
2022-11-20T14:59:49.291Z,79.81
2022-11-20T15:02:20.481Z,79.89
2022-11-20T15:04:49.678Z,79.93
2022-11-20T15:07:29.311Z,79.07
2022-11-20T15:10:07.476Z,78.98
2022-11-20T15:12:41.846Z,79.79
2022-11-20T15:15:39.763Z,79.00
2022-11-20T15:18:17.669Z,79.50
2022-11-20T15:20:48.815Z,79.66
2022-11-20T15:23:21.468Z,79.60
2022-11-20T15:25:52.266Z,79.73
2022-11-20T15:28:31.502Z,79.49
2022-11-20T15:30:59.534Z,79.56
2022-11-20T15:33:27.286Z,79.74
2022-11-20T15:35:54.798Z,79.62
2022-11-20T15:38:22.406Z,79.94
2022-11-20T15:40:53.288Z,79.79
2022-11-20T15:43:21.111Z,79.56
2022-11-20T15:45:54.607Z,79.86
2022-11-20T15:48:26.879Z,79.45
2022-11-20T15:50:57.251Z,79.28
2022-11-20T15:53:25.017Z,79.39
2022-11-20T15:55:52.397Z,79.61
2022-11-20T15:58:19.806Z,79.09
2022-11-20T16:00:47.533Z,79.41
2022-11-20T16:03:16.396Z,80.12
2022-11-20T16:05:43.836Z,80.17
2022-11-20T16:08:11.934Z,80.14
2022-11-20T16:10:39.701Z,80.37
2022-11-20T16:13:31.837Z,79.86
2022-11-20T16:16:00.992Z,80.03
2022-11-20T16:18:28.450Z,79.88
2022-11-20T16:20:55.893Z,79.53
2022-11-20T16:23:23.264Z,79.53
2022-11-20T16:25:51.073Z,79.76
2022-11-20T16:28:19.492Z,79.70
2022-11-20T16:30:47.083Z,79.45
2022-11-20T16:33:18.213Z,78.98
2022-11-20T16:35:45.283Z,78.89
2022-11-20T16:38:12.311Z,79.27
2022-11-20T16:40:39.356Z,78.86
2022-11-20T16:43:12.049Z,78.51
2022-11-20T16:45:43.364Z,78.61
2022-11-20T16:48:15.270Z,78.68
2022-11-20T16:50:47.414Z,78.74
2022-11-20T16:53:14.450Z,78.54
2022-11-20T16:55:41.563Z,78.13
2022-11-20T16:58:09.300Z,77.93
2022-11-20T17:00:38.058Z,78.59
2022-11-20T17:03:05.932Z,78.81
2022-11-20T17:05:34.246Z,78.93
2022-11-20T17:08:01.784Z,78.56
2022-11-20T17:10:29.266Z,78.36
2022-11-20T17:12:56.299Z,78.39
2022-11-20T17:15:23.384Z,77.98
2022-11-20T17:17:50.487Z,78.33
2022-11-20T17:20:17.559Z,77.88
2022-11-20T17:22:44.708Z,78.20
2022-11-20T17:25:11.745Z,77.79
2022-11-20T17:27:38.925Z,78.12
2022-11-20T17:30:06.476Z,77.94
2022-11-20T17:32:33.525Z,77.60
2022-11-20T17:35:00.588Z,77.97
2022-11-20T17:37:27.661Z,77.38
2022-11-20T17:39:54.718Z,77.67
2022-11-20T17:42:27.879Z,77.51
2022-11-20T17:44:55.368Z,77.77
2022-11-20T17:47:22.518Z,78.05
2022-11-20T17:49:49.550Z,77.96
2022-11-20T17:52:16.653Z,77.90
2022-11-20T17:54:43.675Z,78.06
2022-11-20T17:57:29.432Z,78.23
2022-11-20T17:59:56.505Z,78.46
2022-11-20T18:02:23.590Z,78.47
2022-11-20T18:04:50.659Z,78.82
2022-11-20T18:07:17.850Z,78.65
2022-11-20T18:09:45.043Z,78.50
2022-11-20T18:12:12.182Z,78.58
2022-11-20T18:14:39.238Z,78.72
2022-11-20T18:17:09.422Z,78.45
2022-11-20T18:19:44.922Z,78.29
2022-11-20T18:22:19.811Z,78.84
2022-11-20T18:24:47.034Z,78.99
2022-11-20T18:27:16.714Z,79.03
2022-11-20T18:29:45.409Z,79.12
2022-11-20T18:32:12.489Z,78.60
2022-11-20T18:34:39.633Z,79.19
2022-11-20T18:37:06.769Z,78.75
2022-11-20T18:39:34.054Z,79.25
2022-11-20T18:42:19.789Z,79.32
2022-11-20T18:44:53.816Z,79.25
2022-11-20T18:47:27.800Z,79.62
2022-11-20T18:49:57.251Z,79.82
2022-11-20T18:52:34.020Z,80.15
2022-11-20T18:55:02.517Z,80.29
2022-11-20T18:57:30.077Z,80.47
2022-11-20T19:00:06.444Z,80.28
2022-11-20T19:02:40.956Z,80.70
2022-11-20T19:05:12.919Z,80.37
2022-11-20T19:07:40.227Z,80.58
2022-11-20T19:10:07.612Z,80.10
2022-11-20T19:12:35.021Z,80.38
2022-11-20T19:15:02.256Z,79.90
2022-11-20T19:17:29.480Z,79.87
2022-11-20T19:19:56.538Z,79.77
2022-11-20T19:22:23.632Z,80.27
2022-11-20T19:24:50.757Z,80.07
2022-11-20T19:27:17.877Z,79.42
2022-11-20T19:29:45.070Z,79.84
2022-11-20T19:32:12.120Z,79.87
2022-11-20T19:34:39.197Z,79.83
2022-11-20T19:37:06.333Z,80.15
2022-11-20T19:39:35.483Z,80.05
2022-11-20T19:42:02.619Z,80.14
2022-11-20T19:44:29.718Z,80.05
2022-11-20T19:46:57.420Z,79.94
2022-11-20T19:49:25.007Z,79.79
2022-11-20T19:51:52.477Z,79.67
2022-11-20T19:54:19.525Z,79.77
2022-11-20T19:56:47.625Z,79.64
2022-11-20T19:59:15.184Z,79.64
2022-11-20T20:01:42.995Z,79.71
2022-11-20T20:04:10.239Z,79.34
2022-11-20T20:06:38.867Z,79.86
2022-11-20T20:09:08.421Z,80.18
2022-11-20T20:11:36.111Z,80.20
2022-11-20T20:14:08.573Z,80.39
2022-11-20T20:16:35.799Z,80.29
2022-11-20T20:19:04.253Z,79.89
2022-11-20T20:21:33.132Z,79.76
2022-11-20T20:24:01.050Z,79.78
2022-11-20T20:26:29.862Z,79.51
2022-11-20T20:28:56.914Z,79.90
2022-11-20T20:31:26.796Z,79.83
2022-11-20T20:33:54.370Z,80.07
2022-11-20T20:36:22.951Z,79.62
2022-11-20T20:38:54.519Z,79.95
2022-11-20T20:41:23.031Z,79.59
2022-11-20T20:44:08.909Z,79.51
2022-11-20T20:46:35.931Z,79.83
2022-11-20T20:49:03.110Z,80.06
2022-11-20T20:51:30.193Z,80.02
2022-11-20T20:53:57.681Z,80.46
2022-11-20T20:56:25.091Z,80.18
2022-11-20T20:58:52.134Z,79.74
2022-11-20T21:01:20.198Z,80.11
2022-11-20T21:03:47.414Z,80.29
2022-11-20T21:06:14.691Z,79.92
2022-11-20T21:08:44.219Z,80.29
2022-11-20T21:11:14.426Z,80.63
2022-11-20T21:13:43.157Z,80.52
2022-11-20T21:16:11.131Z,80.05
2022-11-20T21:18:38.372Z,80.11
2022-11-20T21:21:25.696Z,80.32
2022-11-20T21:23:53.552Z,80.59
2022-11-20T21:26:21.521Z,80.42
2022-11-20T21:28:50.029Z,80.32
2022-11-20T21:31:22.308Z,80.46
2022-11-20T21:33:51.611Z,80.35
2022-11-20T21:36:20.569Z,80.88
2022-11-20T21:38:48.216Z,81.41
2022-11-20T21:41:16.148Z,81.48
2022-11-20T21:43:44.393Z,81.59
2022-11-20T21:46:13.550Z,81.41
2022-11-20T21:48:41.935Z,81.17
2022-11-20T21:51:14.394Z,81.06
2022-11-20T21:53:41.733Z,81.17
2022-11-20T21:56:10.006Z,80.53
2022-11-20T21:58:38.445Z,81.21
2022-11-20T22:01:14.071Z,81.29
2022-11-20T22:03:41.558Z,81.39
2022-11-20T22:06:09.906Z,82.09
2022-11-20T22:08:38.333Z,81.60
2022-11-20T22:11:16.498Z,82.08
2022-11-20T22:14:02.450Z,81.88
2022-11-20T22:16:29.843Z,82.36
2022-11-20T22:18:58.003Z,82.20
2022-11-20T22:21:27.434Z,82.29
2022-11-20T22:23:55.017Z,82.37
2022-11-20T22:26:24.663Z,82.01
2022-11-20T22:28:53.903Z,82.68
2022-11-20T22:31:22.380Z,82.39
2022-11-20T22:33:49.599Z,82.23
2022-11-20T22:36:21.762Z,82.48
2022-11-20T22:38:49.149Z,82.41
2022-11-20T22:41:36.462Z,82.68
2022-11-20T22:44:05.673Z,83.15
2022-11-20T22:46:35.082Z,82.59
2022-11-20T22:49:04.270Z,82.25
2022-11-20T22:51:33.467Z,82.15
2022-11-20T22:54:01.058Z,82.64
2022-11-20T22:56:28.221Z,82.70
2022-11-20T22:58:55.423Z,82.71
2022-11-20T23:01:24.361Z,82.23
2022-11-20T23:03:56.240Z,82.52
2022-11-20T23:06:24.090Z,82.12
2022-11-20T23:08:51.795Z,82.70
2022-11-20T23:11:29.843Z,82.99
2022-11-20T23:14:01.666Z,82.61
2022-11-20T23:16:29.687Z,83.23
2022-11-20T23:19:04.900Z,82.49
2022-11-20T23:21:32.637Z,83.38
2022-11-20T23:24:00.264Z,83.01
2022-11-20T23:26:29.500Z,83.18
2022-11-20T23:28:58.076Z,83.17
2022-11-20T23:31:26.770Z,83.04
2022-11-20T23:33:54.738Z,83.15
2022-11-20T23:36:21.824Z,83.62
2022-11-20T23:38:48.967Z,83.34
2022-11-20T23:41:16.124Z,83.86
2022-11-20T23:43:43.356Z,84.07
2022-11-20T23:46:15.244Z,83.53
2022-11-20T23:48:45.374Z,84.33
2022-11-20T23:51:13.450Z,83.92
2022-11-20T23:53:40.743Z,83.94
2022-11-20T23:56:08.094Z,84.27
2022-11-20T23:58:36.709Z,84.38
